Strona główna
METAR-TAF:

METAR-TAF

Lotnisko :

Port lotniczy Ushuaia

Ushuaia, Argentyna

Szerokość geograficzna: 54-48S, Długość geograficzna: 068-19W, wysokość: 16 m

Aktualna obserwacja pogody

Raport powstał 28 minut temu, godzina 04:00 UTC
Wiatr 5 kt od wschodnio-północny wschód
Temperatura 4°C
Wilgotność 87%
Ciśnienie 1019 hPa
Widzialność 10 km lub więcej
Brak chmur poniżej 1500 m i brak chmur cumulonimbus

METAR: SAWH 200400Z 07005KT CAVOK 04/02 Q1019

czas: 01:28 (04:28 UTC)

Prognoza

Raport powstał 5 godziny i 28 minut temu, godzina 23:00 UTC
Prognoza ważna od 20 godzina 00 UTC do 20 godzina 24 UTC
Wiatr 7 kt z kierunków zmiennych
Widzialność 10 km lub więcej
Brak chmur poniżej 1500 m i brak chmur cumulonimbus
Stopniowe zmiany
od 20 godzina 18 UTC do 20 godzina 20 UTC
Wiatr 12 kt od południe
Przerywane chmury na wysokości 2300 ft
Rozproszone chmury na wysokości 4000 ft

TAF: SAWH 192300Z 2000/2024 VRB07KT CAVOK TX18/2019Z TN00/2010Z BECMG 2018/2020 18012KT BKN023 SCT040

Obserwacja i prognoza pogody dla ponad 4000 lotnisk (raport METAR i TAF).

Dostępne stacje oznaczono żółtymi i czerwonymi punktami na mapie.

Najedź kursorem aby zobaczyć nazwę stacji.

Kliknij aby zobaczyć obserwacje i prognozy pogody.

Aby zmienić mapę: kliknij na zielony przycisk z czarnym krzyżykiem, aby powiększyć; na zielony przycisk z myślnikiem, aby pomniejszyć; na zielone strzałki, aby przejść do map sąsiednich.


METAR-TAF: